Time;durP1;ratioP1;P1;durP2;ratioP2;P2;SDS_P1;SDS_P2;PMS_P1;PMS_P2;Temp;Humidity;BMP_temperature;BMP_pressure;BME280_temperature;BME280_humidity;BME280_pressure;Samples;Min_cycle;Max_cycle;Signal;HPM_P1;HPM_P2
2023/08/21 00:00:39;;;;;;;5.38;2.05;;;;;;;19.62;95.96;101545.13;5044515;28;20044;-85
2023/08/21 00:03:06;;;;;;;2.90;2.60;;;;;;;19.59;96.38;101545.25;5049192;28;20033;-85
2023/08/21 00:05:33;;;;;;;3.75;2.88;;;;;;;19.58;96.77;101536.41;5048301;28;20393;-92
2023/08/21 00:08:00;;;;;;;3.40;2.70;;;;;;;19.53;96.66;101538.34;5048863;28;20033;-90
2023/08/21 00:10:26;;;;;;;6.13;2.92;;;;;;;19.50;96.82;101534.00;5025968;28;20045;-85
2023/08/21 00:12:53;;;;;;;5.55;2.88;;;;;;;19.46;96.98;101532.38;5042824;28;21043;-84
2023/08/21 00:15:20;;;;;;;4.22;3.03;;;;;;;19.44;97.46;101536.00;5028413;28;20406;-85
2023/08/21 00:17:47;;;;;;;3.13;2.88;;;;;;;19.39;97.94;101538.78;5031228;28;20041;-86
2023/08/21 00:20:14;;;;;;;3.17;2.88;;;;;;;19.36;98.08;101533.59;5057024;28;20037;-87
2023/08/21 00:22:43;;;;;;;3.22;2.92;;;;;;;19.32;98.31;101538.13;5069865;28;20048;-91
2023/08/21 00:25:10;;;;;;;4.82;3.20;;;;;;;19.31;98.68;101538.16;5076633;28;20087;-84
2023/08/21 00:27:37;;;;;;;5.53;4.03;;;;;;;19.29;98.76;101542.66;5032914;28;20049;-85
2023/08/21 00:30:04;;;;;;;2.88;2.47;;;;;;;19.25;98.80;101533.03;5047428;28;20029;-88
2023/08/21 00:32:32;;;;;;;2.78;2.58;;;;;;;19.20;99.33;101529.66;5045731;28;20036;-92
2023/08/21 00:34:59;;;;;;;4.65;2.35;;;;;;;19.20;99.31;101538.47;5049609;28;20557;-84
2023/08/21 00:37:26;;;;;;;3.42;2.33;;;;;;;19.18;98.88;101535.03;5048588;28;20507;-84
2023/08/21 00:39:52;;;;;;;4.05;2.22;;;;;;;19.15;98.51;101522.72;5047757;28;20048;-85
2023/08/21 00:42:19;;;;;;;1.90;1.65;;;;;;;19.14;98.12;101523.63;5043308;28;20047;-89
2023/08/21 00:44:45;;;;;;;3.15;1.92;;;;;;;19.11;98.18;101515.78;5046263;28;20068;-84
2023/08/21 00:47:12;;;;;;;2.42;2.22;;;;;;;19.10;97.78;101515.78;5035477;28;20061;-85
2023/08/21 00:49:39;;;;;;;4.28;1.90;;;;;;;19.05;97.80;101515.09;5030291;28;20049;-85
2023/08/21 00:52:09;;;;;;;3.80;2.30;;;;;;;19.00;97.65;101509.91;5048565;28;20033;-85
2023/08/21 00:54:36;;;;;;;2.75;2.28;;;;;;;18.93;98.18;101511.91;5045571;28;20457;-85
2023/08/21 00:57:03;;;;;;;2.45;2.10;;;;;;;18.89;98.45;101504.03;5047052;28;20041;-87
2023/08/21 00:59:30;;;;;;;2.92;2.10;;;;;;;18.85;98.56;101506.78;5050130;28;20045;-88
2023/08/21 01:01:57;;;;;;;2.70;2.00;;;;;;;18.83;98.47;101519.22;5051272;28;20045;-87
2023/08/21 01:04:24;;;;;;;3.88;2.63;;;;;;;18.81;98.59;101522.81;5041876;28;20046;-86
2023/08/21 01:06:51;;;;;;;7.18;2.22;;;;;;;18.81;98.31;101523.72;5058572;28;20037;-87
2023/08/21 01:09:24;;;;;;;2.65;1.75;;;;;;;18.80;98.72;101529.06;5039347;28;20130;-85
2023/08/21 01:12:06;;;;;;;6.88;2.63;;;;;;;18.76;99.21;101527.38;5067451;28;20032;-88
2023/08/21 01:14:57;;;;;;;3.85;3.05;;;;;;;18.68;98.96;101530.25;5047726;28;20057;-85
2023/08/21 01:17:25;;;;;;;3.78;2.42;;;;;;;18.63;99.36;101524.22;5046056;28;20064;-86
2023/08/21 01:19:53;;;;;;;2.40;2.10;;;;;;;18.57;99.85;101519.97;5056098;28;20043;-84
2023/08/21 01:22:20;;;;;;;2.30;2.10;;;;;;;18.52;100.00;101517.47;5045556;28;20045;-87
2023/08/21 01:24:46;;;;;;;3.08;2.63;;;;;;;18.50;100.00;101513.97;5037580;28;20416;-88
2023/08/21 01:27:15;;;;;;;3.30;2.17;;;;;;;18.49;100.00;101517.53;5062801;28;20028;-91
2023/08/21 01:29:41;;;;;;;2.08;1.73;;;;;;;18.49;100.00;101517.53;5064993;28;20503;-92
2023/08/21 01:32:28;;;;;;;3.55;1.60;;;;;;;18.51;100.00;101510.44;5031865;28;20052;-83
2023/08/21 01:34:57;;;;;;;9.15;2.15;;;;;;;18.48;99.69;101517.59;5026729;28;20053;-85
2023/08/21 01:37:25;;;;;;;3.58;1.70;;;;;;;18.46;99.94;101511.44;5051809;28;20049;-84
2023/08/21 01:39:52;;;;;;;1.63;1.52;;;;;;;18.44;100.00;101514.16;5048242;28;20765;-85
2023/08/21 01:42:19;;;;;;;2.10;1.90;;;;;;;18.44;99.84;101526.53;5048318;28;20715;-84
2023/08/21 01:44:46;;;;;;;3.05;1.85;;;;;;;18.42;100.00;101529.25;5048158;28;20460;-85
2023/08/21 01:47:13;;;;;;;4.45;1.67;;;;;;;18.42;100.00;101529.25;5051293;28;20562;-86
2023/08/21 01:49:40;;;;;;;3.38;1.80;;;;;;;18.42;99.77;101525.72;5046264;28;20531;-85
2023/08/21 01:52:06;;;;;;;4.90;1.73;;;;;;;18.41;99.77;101526.63;5048260;28;20068;-85
2023/08/21 01:54:33;;;;;;;1.95;1.85;;;;;;;18.35;100.00;101533.84;5042620;28;20037;-85
2023/08/21 01:56:59;;;;;;;1.50;1.40;;;;;;;18.30;99.77;101530.47;5049221;28;20052;-86
2023/08/21 01:59:26;;;;;;;2.28;1.70;;;;;;;18.26;100.00;101530.56;5049688;28;20048;-90
2023/08/21 02:01:53;;;;;;;2.65;2.08;;;;;;;18.19;100.00;101530.72;5045652;28;20126;-86
2023/08/21 02:04:20;;;;;;;1.67;1.58;;;;;;;18.15;100.00;101531.72;5055341;28;20045;-86
2023/08/21 02:06:46;;;;;;;2.13;1.85;;;;;;;18.13;100.00;101530.03;5045954;28;20041;-84
2023/08/21 02:09:13;;;;;;;1.75;1.60;;;;;;;18.12;100.00;101518.56;5051014;28;20044;-90
2023/08/21 02:11:40;;;;;;;2.25;1.77;;;;;;;18.14;100.00;101523.81;5045654;28;20045;-85
2023/08/21 02:14:06;;;;;;;2.80;2.20;;;;;;;18.13;100.00;101517.66;5050061;28;20493;-85
2023/08/21 02:16:33;;;;;;;2.17;1.63;;;;;;;18.16;100.00;101521.97;5050049;28;20045;-86
2023/08/21 02:19:00;;;;;;;2.95;2.05;;;;;;;18.16;100.00;101525.53;5041275;28;20041;-85
2023/08/21 02:21:27;;;;;;;4.10;2.10;;;;;;;18.16;100.00;101525.53;5045240;28;20043;-86
2023/08/21 02:23:53;;;;;;;2.53;1.73;;;;;;;18.15;100.00;101520.28;5048524;28;20053;-88
2023/08/21 02:26:20;;;;;;;5.32;1.70;;;;;;;18.11;100.00;101516.81;5039128;28;20090;-88
2023/08/21 02:28:47;;;;;;;3.08;2.22;;;;;;;18.08;100.00;101522.22;5044209;28;20057;-87
2023/08/21 02:31:13;;;;;;;1.58;1.48;;;;;;;18.05;100.00;101538.16;5042461;28;20065;-87
2023/08/21 02:33:40;;;;;;;2.25;2.05;;;;;;;18.03;100.00;101534.72;5055872;28;20053;-86
2023/08/21 02:36:08;;;;;;;2.25;2.15;;;;;;;18.05;100.00;101535.53;5043207;28;20212;-86
2023/08/21 02:38:34;;;;;;;2.88;2.00;;;;;;;18.04;100.00;101531.13;5048092;28;20123;-85
2023/08/21 02:41:01;;;;;;;2.90;2.30;;;;;;;18.04;100.00;101532.91;5047260;28;20051;-85
2023/08/21 02:43:28;;;;;;;2.92;2.60;;;;;;;18.06;100.00;101544.34;5049719;28;20039;-91
2023/08/21 02:45:56;;;;;;;4.20;2.42;;;;;;;18.05;100.00;101538.16;5048464;28;20044;-87
2023/08/21 02:48:22;;;;;;;4.03;2.25;;;;;;;18.06;100.00;101533.75;5050788;28;20104;-85
2023/08/21 02:50:50;;;;;;;5.07;2.75;;;;;;;18.04;100.00;101536.44;5054564;28;20120;-86
2023/08/21 02:53:16;;;;;;;3.38;2.72;;;;;;;18.01;100.00;101534.72;5048362;28;20041;-84
2023/08/21 02:55:43;;;;;;;4.47;2.15;;;;;;;18.04;100.00;101536.44;5049669;28;20040;-88
2023/08/21 02:58:10;;;;;;;2.40;1.80;;;;;;;18.05;100.00;101530.22;5048920;28;20036;-85
2023/08/21 03:00:37;;;;;;;3.22;2.17;;;;;;;18.05;100.00;101524.94;5050633;28;20080;-86
2023/08/21 03:03:04;;;;;;;1.65;1.55;;;;;;;18.10;100.00;101527.47;5060709;28;20098;-86
2023/08/21 03:05:31;;;;;;;2.05;1.95;;;;;;;18.10;100.00;101536.28;5047661;28;20192;-85
2023/08/21 03:07:59;;;;;;;5.55;2.35;;;;;;;18.12;100.00;101530.94;5048103;28;20041;-84
2023/08/21 03:10:27;;;;;;;4.15;1.92;;;;;;;18.10;100.00;101533.63;5029702;28;20463;-84
2023/08/21 03:12:53;;;;;;;1.40;1.30;;;;;;;18.07;99.88;101530.19;5053732;28;20038;-87
2023/08/21 03:15:20;;;;;;;4.47;1.63;;;;;;;18.06;100.00;101526.66;5047358;28;20387;-86
2023/08/21 03:17:47;;;;;;;1.88;1.73;;;;;;;18.06;100.00;101529.31;5055972;28;20040;-86
2023/08/21 03:20:14;;;;;;;2.33;1.65;;;;;;;18.06;100.00;101531.97;5063649;28;20098;-84
2023/08/21 03:22:42;;;;;;;2.95;1.80;;;;;;;18.08;99.80;101530.16;5050878;28;20040;-92
2023/08/21 03:25:09;;;;;;;5.35;2.60;;;;;;;18.11;99.65;101527.41;5052649;28;20044;-85
2023/08/21 03:27:39;;;;;;;1.95;1.52;;;;;;;18.10;99.44;101528.31;5053940;28;20051;-85
2023/08/21 03:30:07;;;;;;;4.70;2.05;;;;;;;18.06;99.42;101539.06;5050528;28;20488;-90
2023/08/21 03:32:35;;;;;;;1.70;1.50;;;;;;;18.02;99.75;101538.25;5038729;28;20045;-87
2023/08/21 03:35:02;;;;;;;2.20;1.90;;;;;;;17.97;99.86;101545.47;5046744;28;20045;-85
2023/08/21 03:37:29;;;;;;;6.35;1.48;;;;;;;17.93;100.00;101533.22;5048734;28;20037;-85
2023/08/21 03:39:57;;;;;;;8.43;1.98;;;;;;;17.89;100.00;101536.81;5033012;28;20063;-85
2023/08/21 03:42:24;;;;;;;4.00;2.33;;;;;;;17.90;100.00;101539.41;5048257;28;20045;-85
2023/08/21 03:44:50;;;;;;;4.65;2.10;;;;;;;17.90;100.00;101539.41;5027400;28;20091;-86
2023/08/21 03:47:17;;;;;;;3.70;2.42;;;;;;;17.90;100.00;101543.81;5032024;28;20045;-89
2023/08/21 03:49:44;;;;;;;5.03;2.10;;;;;;;17.91;100.00;101540.28;5063544;28;20515;-87
2023/08/21 03:52:11;;;;;;;2.47;1.80;;;;;;;17.98;100.00;101539.25;5048124;28;20056;-84
2023/08/21 03:54:37;;;;;;;3.90;2.00;;;;;;;18.08;99.65;101545.16;5027952;28;20068;-86
2023/08/21 03:57:04;;;;;;;4.85;2.42;;;;;;;18.11;99.49;101540.66;5046926;28;20045;-87
2023/08/21 03:59:31;;;;;;;2.15;1.95;;;;;;;18.12;99.50;101542.41;5044520;28;20056;-86
2023/08/21 04:01:58;;;;;;;2.83;1.85;;;;;;;18.10;99.52;101535.41;5045978;28;20087;-84
2023/08/21 04:04:25;;;;;;;1.35;1.35;;;;;;;18.08;99.40;101537.22;5042832;28;20491;-85
2023/08/21 04:06:51;;;;;;;3.22;1.90;;;;;;;18.07;99.49;101530.19;5048926;28;20041;-87
2023/08/21 04:09:18;;;;;;;2.88;1.73;;;;;;;18.03;99.48;101537.38;5047494;28;20468;-85
2023/08/21 04:11:44;;;;;;;4.80;1.98;;;;;;;18.02;99.33;101532.97;5044837;28;20045;-90
2023/08/21 04:14:13;;;;;;;3.45;2.60;;;;;;;17.97;99.92;101540.16;5045578;28;20051;-84
2023/08/21 04:16:41;;;;;;;2.92;1.80;;;;;;;17.90;100.00;101541.19;5069076;28;20063;-85
2023/08/21 04:19:08;;;;;;;4.30;1.88;;;;;;;17.80;100.00;101543.19;5049564;28;20132;-85
2023/08/21 04:21:36;;;;;;;3.45;1.73;;;;;;;17.74;100.00;101552.16;5046659;28;20047;-84
2023/08/21 04:24:02;;;;;;;4.45;2.20;;;;;;;17.69;100.00;101554.03;5043592;28;20052;-89
2023/08/21 04:26:29;;;;;;;1.88;1.70;;;;;;;17.65;100.00;101553.28;5044753;28;20076;-84
2023/08/21 04:28:56;;;;;;;4.13;1.95;;;;;;;17.63;100.00;101552.41;5048301;28;20571;-86
2023/08/21 04:31:22;;;;;;;5.43;2.33;;;;;;;17.65;100.00;101557.66;5041709;28;20118;-86
2023/08/21 04:33:49;;;;;;;2.42;2.03;;;;;;;17.72;100.00;101564.56;5048475;28;20053;-84
2023/08/21 04:36:17;;;;;;;3.78;1.83;;;;;;;17.79;100.00;101560.00;5040068;28;20053;-85
2023/08/21 04:38:44;;;;;;;3.67;1.75;;;;;;;17.89;100.00;101560.66;5042847;28;20128;-88
2023/08/21 04:41:15;;;;;;;2.65;1.75;;;;;;;17.95;100.00;101558.75;5024055;28;20484;-85
2023/08/21 04:43:42;;;;;;;4.00;2.13;;;;;;;17.96;100.00;101549.00;5047660;28;20041;-86
2023/08/21 04:46:08;;;;;;;3.63;1.98;;;;;;;17.97;100.00;101551.63;5048958;28;20033;-85
2023/08/21 04:48:35;;;;;;;3.22;1.63;;;;;;;17.96;100.00;101552.50;5045235;28;20099;-87
2023/08/21 04:51:02;;;;;;;3.13;1.55;;;;;;;17.97;100.00;101551.63;5028908;28;20805;-89
2023/08/21 04:53:30;;;;;;;6.32;2.47;;;;;;;18.05;100.00;101548.78;5048353;28;20049;-87
2023/08/21 04:55:59;;;;;;;7.40;2.97;;;;;;;18.14;99.75;101553.81;5047753;28;20045;-86
2023/08/21 04:58:26;;;;;;;5.63;2.00;;;;;;;18.22;98.94;101560.72;5047847;28;20049;-87
2023/08/21 05:00:52;;;;;;;3.47;1.50;;;;;;;18.28;98.56;101566.72;5043412;28;20097;-85
2023/08/21 05:03:19;;;;;;;3.63;1.65;;;;;;;18.35;98.27;101564.78;5042220;28;20499;-85
2023/08/21 05:05:56;;;;;;;7.05;2.20;;;;;;;18.36;97.81;101561.22;5038621;28;20046;-85
2023/08/21 05:08:27;;;;;;;4.80;2.20;;;;;;;18.35;97.82;101567.44;5047754;28;20097;-95
2023/08/21 05:11:00;;;;;;;3.95;2.20;;;;;;;18.33;98.04;101569.25;5055279;28;20045;-88
2023/08/21 05:13:27;;;;;;;2.78;1.58;;;;;;;18.30;98.02;101571.97;5044156;28;20041;-86
2023/08/21 05:15:55;;;;;;;2.67;1.73;;;;;;;18.32;98.03;101576.31;5058256;28;20045;-85
2023/08/21 05:18:23;;;;;;;4.72;2.15;;;;;;;18.31;97.88;101574.59;5029183;28;20562;-86
2023/08/21 05:20:51;;;;;;;5.53;2.05;;;;;;;18.31;97.87;101577.22;5048121;28;20045;-89
2023/08/21 05:23:20;;;;;;;4.68;2.05;;;;;;;18.27;97.75;101566.78;5062531;28;20388;-87
2023/08/21 05:25:49;;;;;;;5.43;2.38;;;;;;;18.24;98.02;101567.72;5051133;28;20033;-86
2023/08/21 05:28:16;;;;;;;1.70;1.45;;;;;;;18.18;98.20;101567.88;5045851;28;20045;-86
2023/08/21 05:30:45;;;;;;;3.67;1.73;;;;;;;18.14;98.84;101575.03;5028544;28;20041;-87
2023/08/21 05:33:11;;;;;;;4.22;2.15;;;;;;;18.11;98.92;101572.47;5041459;28;20059;-87
2023/08/21 05:35:38;;;;;;;3.28;1.77;;;;;;;18.08;99.06;101576.97;5040509;28;20060;-85
2023/08/21 05:38:05;;;;;;;3.35;2.05;;;;;;;18.10;98.97;101581.31;5048057;28;20047;-86
2023/08/21 05:40:32;;;;;;;3.35;2.03;;;;;;;18.11;99.31;101583.06;5031138;28;20048;-86
2023/08/21 05:42:59;;;;;;;6.63;3.00;;;;;;;18.13;99.12;101581.25;5055323;28;20132;-86
2023/08/21 05:45:25;;;;;;;1.83;1.58;;;;;;;18.13;99.14;101586.56;5044020;28;20052;-87
2023/08/21 05:47:52;;;;;;;5.82;1.95;;;;;;;18.16;99.07;101585.56;5056976;28;20043;-86
2023/08/21 05:50:18;;;;;;;3.42;2.45;;;;;;;18.21;99.00;101588.97;5027231;28;20049;-87
2023/08/21 05:52:48;;;;;;;11.50;3.30;;;;;;;18.23;98.94;101591.63;5051104;28;20059;-89
2023/08/21 05:55:15;;;;;;;5.20;2.35;;;;;;;18.27;98.68;101591.47;5031569;28;20163;-86
2023/08/21 05:57:41;;;;;;;6.63;2.83;;;;;;;18.33;98.64;101593.13;5033424;28;20134;-86
2023/08/21 06:00:09;;;;;;;4.40;2.55;;;;;;;18.45;98.12;101594.56;5048357;28;20045;-86
2023/08/21 06:02:35;;;;;;;5.10;2.58;;;;;;;18.63;97.70;101599.38;5046152;28;20049;-86
2023/08/21 06:05:03;;;;;;;4.32;2.17;;;;;;;18.91;96.38;101590.66;5033952;28;20053;-87
2023/08/21 06:07:29;;;;;;;4.47;2.13;;;;;;;19.23;95.06;101599.47;5048817;28;20045;-84
2023/08/21 06:09:56;;;;;;;5.55;2.85;;;;;;;19.49;93.93;101601.31;5051357;28;20051;-85
2023/08/21 06:12:22;;;;;;;4.50;2.13;;;;;;;19.68;92.57;101603.38;5040495;28;20047;-87
2023/08/21 06:14:49;;;;;;;3.08;1.58;;;;;;;19.81;92.21;101607.41;5050044;28;20444;-86
2023/08/21 06:17:16;;;;;;;5.95;1.88;;;;;;;19.97;91.46;101602.47;5047609;28;20339;-87
2023/08/21 06:19:42;;;;;;;5.53;2.28;;;;;;;20.11;90.72;101599.34;5044106;28;20044;-86
2023/08/21 06:22:09;;;;;;;3.40;1.67;;;;;;;20.11;90.78;101601.13;5048832;28;20125;-90
2023/08/21 06:24:36;;;;;;;6.38;2.13;;;;;;;20.20;90.25;101605.28;5034135;28;20561;-85
2023/08/21 06:27:03;;;;;;;1.88;1.50;;;;;;;20.30;90.14;101612.03;5051799;28;20079;-86
2023/08/21 06:29:29;;;;;;;4.32;1.92;;;;;;;20.41;89.38;101607.19;5050091;28;20069;-86
2023/08/21 06:31:56;;;;;;;3.30;1.95;;;;;;;20.63;88.86;101606.44;5051854;28;20099;-85
2023/08/21 06:34:22;;;;;;;4.90;2.10;;;;;;;20.74;88.21;101596.31;5047168;28;20047;-85
2023/08/21 06:36:49;;;;;;;5.38;2.72;;;;;;;20.71;87.54;101601.72;5050298;28;20068;-85
2023/08/21 06:39:15;;;;;;;5.35;1.98;;;;;;;20.70;88.11;101596.47;5061534;28;20066;-89
2023/08/21 06:41:42;;;;;;;2.08;1.90;;;;;;;20.81;88.04;101607.59;5065856;28;20056;-87
2023/08/21 06:44:09;;;;;;;6.32;2.45;;;;;;;21.04;86.76;101613.84;5051259;28;20053;-83
2023/08/21 06:46:36;;;;;;;8.60;2.17;;;;;;;21.26;85.64;101608.56;5052327;28;20099;-89
2023/08/21 06:49:03;;;;;;;2.13;1.92;;;;;;;21.46;84.83;101607.81;5045976;28;20064;-85
2023/08/21 06:51:30;;;;;;;2.95;2.28;;;;;;;21.81;83.90;101617.06;5034274;28;20583;-86
2023/08/21 06:53:56;;;;;;;6.85;2.00;;;;;;;22.26;81.55;101617.00;5046495;28;20411;-86
2023/08/21 06:56:23;;;;;;;3.83;1.92;;;;;;;22.42;81.07;101617.22;5037161;28;20125;-84
2023/08/21 06:58:50;;;;;;;5.97;1.88;;;;;;;22.31;80.33;101620.34;5053162;28;20094;-85
2023/08/21 07:01:16;;;;;;;6.70;1.80;;;;;;;22.19;80.37;101624.41;5039465;28;20045;-87
2023/08/21 07:03:43;;;;;;;2.75;1.77;;;;;;;22.11;81.12;101626.50;5064871;28;20065;-85
2023/08/21 07:06:10;;;;;;;4.13;1.58;;;;;;;22.05;81.77;101627.63;5058433;28;20060;-84
2023/08/21 07:08:37;;;;;;;2.55;1.63;;;;;;;22.01;81.23;101623.38;5047313;28;20041;-86
2023/08/21 07:11:05;;;;;;;2.55;1.95;;;;;;;22.02;81.55;101617.13;5034203;28;20384;-85
2023/08/21 07:13:32;;;;;;;2.38;1.90;;;;;;;22.18;80.23;101613.81;5048931;28;20056;-87
2023/08/21 07:16:02;;;;;;;3.78;2.20;;;;;;;22.45;80.00;101617.97;5049000;28;20480;-87
2023/08/21 07:18:28;;;;;;;1.63;1.23;;;;;;;22.78;79.02;101620.06;5053407;28;20047;-85
2023/08/21 07:20:55;;;;;;;3.33;1.50;;;;;;;23.14;77.45;101613.16;5049917;28;20045;-90
2023/08/21 07:23:21;;;;;;;3.80;1.90;;;;;;;23.41;75.19;101619.00;5049163;28;20585;-85
2023/08/21 07:25:48;;;;;;;3.72;1.52;;;;;;;23.65;74.06;101618.75;5046201;28;20046;-85
2023/08/21 07:28:16;;;;;;;5.32;2.42;;;;;;;24.13;71.82;101618.22;5045556;28;20150;-86
2023/08/21 07:30:43;;;;;;;1.95;1.30;;;;;;;24.51;68.88;101624.28;5048915;28;20095;-85
2023/08/21 07:33:10;;;;;;;2.90;1.40;;;;;;;24.66;67.92;101624.44;5033328;28;20650;-85
2023/08/21 07:35:36;;;;;;;2.13;1.23;;;;;;;24.83;67.02;101628.91;5041776;28;20089;-87
2023/08/21 07:38:04;;;;;;;3.65;1.42;;;;;;;24.75;66.89;101632.84;5045943;28;20040;-88
2023/08/21 07:40:31;;;;;;;3.50;1.55;;;;;;;24.68;67.39;101639.50;5063907;28;20049;-85
2023/08/21 07:42:57;;;;;;;3.28;1.83;;;;;;;24.49;68.33;101636.00;5045307;28;20069;-84
2023/08/21 07:45:24;;;;;;;2.17;1.50;;;;;;;24.36;68.14;101641.13;5045026;28;20792;-85
2023/08/21 07:47:51;;;;;;;4.32;1.55;;;;;;;24.30;67.98;101642.31;5047130;28;20041;-93
2023/08/21 07:50:17;;;;;;;2.78;1.63;;;;;;;24.27;67.30;101635.31;5042253;28;20037;-87
2023/08/21 07:52:44;;;;;;;5.57;1.83;;;;;;;24.36;66.53;101639.31;5056368;28;20045;-85
2023/08/21 07:55:11;;;;;;;2.10;1.05;;;;;;;24.67;65.55;101640.44;5032277;28;20083;-84
2023/08/21 07:57:37;;;;;;;1.90;1.50;;;;;;;24.96;64.09;101640.69;5044197;28;20052;-84
2023/08/21 08:00:08;;;;;;;2.97;1.13;;;;;;;25.32;62.42;101644.97;5056299;28;20041;-84
2023/08/21 08:02:34;;;;;;;4.60;1.27;;;;;;;25.50;61.08;101644.91;5063029;28;20044;-84
2023/08/21 08:05:03;;;;;;;7.13;2.25;;;;;;;25.60;59.94;101646.13;5050239;28;20041;-87
2023/08/21 08:07:31;;;;;;;3.75;1.05;;;;;;;25.68;59.85;101651.94;5041776;28;20041;-84
2023/08/21 08:09:57;;;;;;;6.57;1.77;;;;;;;25.19;59.17;101644.78;5039115;28;20056;-85
2023/08/21 08:12:24;;;;;;;5.63;1.92;;;;;;;24.73;61.62;101650.81;5045440;28;20786;-86
2023/08/21 08:14:51;;;;;;;4.65;1.80;;;;;;;24.69;62.05;101648.38;5034984;28;20110;-85
2023/08/21 08:17:18;;;;;;;3.10;1.33;;;;;;;25.07;61.39;101653.47;5052922;28;20072;-85
2023/08/21 08:19:45;;;;;;;4.03;1.63;;;;;;;25.83;58.78;101639.44;5050923;28;20492;-84
2023/08/21 08:22:11;;;;;;;4.15;2.42;;;;;;;26.06;57.04;101631.91;5036339;28;20045;-87
2023/08/21 08:24:38;;;;;;;2.58;1.65;;;;;;;25.78;58.57;101638.00;5040161;28;20045;-88
2023/08/21 08:27:05;;;;;;;4.32;1.38;;;;;;;25.89;57.94;101640.91;5055882;28;20098;-85
2023/08/21 08:29:31;;;;;;;4.35;1.27;;;;;;;26.48;55.77;101640.16;5051544;28;20123;-88
2023/08/21 08:31:58;;;;;;;2.20;1.30;;;;;;;26.96;54.21;101638.13;5045285;28;20125;-86
2023/08/21 08:34:24;;;;;;;5.05;1.67;;;;;;;27.17;53.39;101643.97;5049959;28;20492;-85
2023/08/21 08:36:51;;;;;;;5.13;1.67;;;;;;;27.28;53.27;101637.06;5028119;28;20148;-85
2023/08/21 08:39:18;;;;;;;3.45;1.20;;;;;;;27.53;50.24;101647.09;5049722;28;20045;-84
2023/08/21 08:41:56;;;;;;;2.63;1.20;;;;;;;27.76;49.01;101634.84;5050510;28;20055;-88
2023/08/21 08:44:26;;;;;;;3.70;1.15;;;;;;;27.41;48.73;101646.06;5039752;28;20045;-85
2023/08/21 08:46:53;;;;;;;10.10;1.92;;;;;;;27.06;49.92;101638.41;5051219;28;20482;-91
2023/08/21 08:49:23;;;;;;;7.45;2.22;;;;;;;26.97;50.26;101629.09;5047972;28;20033;-84
2023/08/21 08:51:53;;;;;;;5.78;1.50;;;;;;;26.23;51.90;101634.47;5050044;28;20061;-84
2023/08/21 08:54:22;;;;;;;6.07;1.30;;;;;;;26.07;52.56;101645.25;5053326;28;20116;-84
2023/08/21 08:56:49;;;;;;;5.30;1.35;;;;;;;27.72;48.32;101644.94;5065339;28;20024;-93
2023/08/21 08:59:16;;;;;;;1.30;1.02;;;;;;;28.72;46.09;101633.75;5066221;28;20036;-86
2023/08/21 09:01:43;;;;;;;2.95;0.93;;;;;;;28.41;47.01;101635.88;5050607;28;20087;-86
2023/08/21 09:04:10;;;;;;;1.65;0.90;;;;;;;28.03;48.18;101645.63;5053447;28;20480;-85
2023/08/21 09:06:37;;;;;;;4.70;1.45;;;;;;;27.88;48.39;101638.53;5014118;28;20214;-85
2023/08/21 09:09:04;;;;;;;3.70;1.30;;;;;;;27.92;48.46;101642.75;5030885;28;20072;-87
2023/08/21 09:11:32;;;;;;;3.53;1.10;;;;;;;27.95;48.02;101638.97;5051543;28;20098;-86
2023/08/21 09:14:02;;;;;;;2.47;0.95;;;;;;;27.98;47.46;101631.56;5041660;28;20330;-85
2023/08/21 09:16:28;;;;;;;4.80;1.20;;;;;;;27.96;46.73;101638.03;5033343;28;20048;-84
2023/08/21 09:18:58;;;;;;;6.35;1.20;;;;;;;28.38;45.08;101623.50;5050534;28;20080;-87
2023/08/21 09:21:27;;;;;;;4.32;1.35;;;;;;;29.10;43.08;101619.41;5048220;28;20056;-88
2023/08/21 09:23:59;;;;;;;4.20;1.00;;;;;;;30.07;40.95;101618.63;5045396;28;20067;-84
2023/08/21 09:26:26;;;;;;;2.70;0.93;;;;;;;29.90;39.99;101618.06;5028035;28;20114;-85
2023/08/21 09:28:54;;;;;;;2.28;0.82;;;;;;;29.02;41.84;101619.06;5042116;28;20064;-84
2023/08/21 09:31:30;;;;;;;4.75;1.35;;;;;;;28.25;43.63;101619.91;5041555;28;20059;-83
2023/08/21 09:34:00;;;;;;;1.48;1.00;;;;;;;28.07;44.51;101619.38;5047410;28;20056;-85
2023/08/21 09:36:29;;;;;;;2.28;1.15;;;;;;;27.85;44.71;101618.06;5055249;28;20106;-84
2023/08/21 09:38:56;;;;;;;3.40;1.05;;;;;;;27.83;45.53;101617.31;5049976;28;20056;-85
2023/08/21 09:41:26;;;;;;;3.45;0.90;;;;;;;27.99;44.69;101629.72;5049769;28;20144;-84
2023/08/21 09:43:53;;;;;;;2.05;0.63;;;;;;;28.10;43.91;101627.22;5047282;28;20052;-86
2023/08/21 09:46:28;;;;;;;2.53;0.80;;;;;;;28.02;43.96;101619.66;5048766;28;20122;-84
2023/08/21 09:48:55;;;;;;;1.45;0.88;;;;;;;27.85;44.88;101625.31;5054784;28;20819;-87
2023/08/21 09:51:25;;;;;;;1.23;0.60;;;;;;;27.87;44.74;101621.53;5051026;28;20044;-86
2023/08/21 09:53:55;;;;;;;3.00;1.33;;;;;;;28.04;44.24;101628.50;5052024;28;20098;-90
2023/08/21 09:56:25;;;;;;;2.92;0.70;;;;;;;28.60;42.74;101619.28;5048117;28;20049;-85
2023/08/21 09:58:52;;;;;;;7.55;1.35;;;;;;;28.95;42.39;101625.88;5051723;28;20095;-86
2023/08/21 10:01:22;;;;;;;3.92;1.40;;;;;;;29.11;42.49;101620.25;5048425;28;20116;-84
2023/08/21 10:03:50;;;;;;;5.72;1.33;;;;;;;28.94;41.74;101626.84;5050661;28;20071;-85
2023/08/21 10:06:18;;;;;;;2.65;1.05;;;;;;;28.64;41.32;101628.91;5063413;28;20057;-83
2023/08/21 10:08:47;;;;;;;1.65;0.73;;;;;;;28.43;39.96;101639.31;5035235;28;20287;-83
2023/08/21 10:11:15;;;;;;;2.08;0.88;;;;;;;27.96;41.64;101633.50;5052204;28;20144;-84
2023/08/21 10:13:42;;;;;;;1.05;0.50;;;;;;;27.99;42.07;101638.69;5048731;28;20137;-84
2023/08/21 10:16:11;;;;;;;3.90;0.57;;;;;;;27.86;40.97;101630.56;5051485;28;20056;-89
2023/08/21 10:18:38;;;;;;;2.60;0.82;;;;;;;27.58;40.71;101634.22;5050975;28;20144;-84
2023/08/21 10:21:21;;;;;;;1.73;0.43;;;;;;;27.61;40.56;101634.00;5052637;28;20042;-87
2023/08/21 10:23:50;;;;;;;1.83;0.80;;;;;;;27.55;39.45;101635.28;5066428;28;20041;-88
2023/08/21 10:26:23;;;;;;;4.35;1.10;;;;;;;27.54;39.85;101640.78;5054425;28;20099;-87
2023/08/21 10:29:02;;;;;;;2.08;0.63;;;;;;;27.38;41.08;101639.06;5049030;28;20036;-85
2023/08/21 10:31:38;;;;;;;1.35;0.70;;;;;;;26.97;41.79;101642.53;5055339;28;20527;-84
2023/08/21 10:34:12;;;;;;;3.08;0.95;;;;;;;26.68;42.87;101636.28;5051617;28;20052;-84
2023/08/21 10:36:45;;;;;;;3.28;1.00;;;;;;;26.37;43.79;101635.44;5052653;28;20055;-84
2023/08/21 10:39:19;;;;;;;1.90;0.60;;;;;;;26.31;43.90;101631.31;5059218;28;20041;-84
2023/08/21 10:41:59;;;;;;;2.03;0.63;;;;;;;26.33;44.64;101631.22;5035133;28;20143;-87
2023/08/21 10:44:36;;;;;;;1.60;1.00;;;;;;;26.54;43.33;101632.63;5046883;28;20055;-85
2023/08/21 10:47:23;;;;;;;21.95;3.72;;;;;;;27.62;40.67;101622.28;5053461;28;20048;-89
2023/08/21 10:49:56;;;;;;;10.48;2.47;;;;;;;28.36;39.08;101616.50;5049095;28;20065;-90
2023/08/21 10:52:44;;;;;;;9.23;1.33;;;;;;;28.82;38.15;101617.81;5067901;28;20040;-90
2023/08/21 10:55:13;;;;;;;7.93;1.17;;;;;;;29.85;36.32;101607.56;5055030;28;20454;-85
2023/08/21 10:57:41;;;;;;;2.60;1.25;;;;;;;30.57;35.29;101621.94;5054309;28;20044;-85
2023/08/21 11:00:17;;;;;;;0.82;0.77;;;;;;;29.95;34.85;101623.97;5036804;28;20076;-84
2023/08/21 11:02:51;;;;;;;1.55;0.82;;;;;;;30.19;35.69;101623.06;5051526;28;20429;-84
2023/08/21 11:05:18;;;;;;;3.30;0.68;;;;;;;30.68;35.58;101624.66;5050525;28;20532;-86
2023/08/21 11:07:48;;;;;;;13.80;1.50;;;;;;;30.05;36.71;101621.44;5049474;28;20052;-85
2023/08/21 11:10:18;;;;;;;2.38;0.80;;;;;;;29.97;37.10;101621.16;5067549;28;20039;-87
2023/08/21 11:12:55;;;;;;;6.18;1.10;;;;;;;30.33;35.89;101614.75;5053949;28;20088;-86
2023/08/21 11:15:23;;;;;;;2.63;0.52;;;;;;;30.71;36.03;101615.44;5044637;28;20040;-85
2023/08/21 11:18:01;;;;;;;2.42;0.63;;;;;;;31.50;33.39;101614.53;5025077;28;20072;-84
2023/08/21 11:20:36;;;;;;;2.38;1.15;;;;;;;32.37;32.45;101601.88;5047258;28;20049;-84
2023/08/21 11:23:07;;;;;;;1.77;0.60;;;;;;;32.52;31.98;101599.69;5053655;28;20060;-84
2023/08/21 11:25:35;;;;;;;1.42;0.73;;;;;;;33.05;31.22;101602.19;5053219;28;20056;-83
2023/08/21 11:28:03;;;;;;;2.88;0.77;;;;;;;32.77;31.79;101606.53;5049876;28;20816;-87